Time;durP1;ratioP1;P1;durP2;ratioP2;P2;SDS_P1;SDS_P2;PMS_P1;PMS_P2;Temp;Humidity;BMP_temperature;BMP_pressure;BME280_temperature;BME280_humidity;BME280_pressure;Samples;Min_cycle;Max_cycle;Signal;HPM_P1;HPM_P2
2023/03/07 00:01:04;;;;;;;4.80;1.42;;;;;;;0.89;100.00;99427.56;4938539;29;20078;-84
2023/03/07 00:03:31;;;;;;;6.95;1.88;;;;;;;0.54;100.00;99347.47;4943279;28;20055;-85
2023/03/07 00:06:17;;;;;;;7.13;1.83;;;;;;;1.13;100.00;99432.25;4942446;29;20101;-85
2023/03/07 00:08:43;;;;;;;5.93;1.92;;;;;;;0.65;100.00;99387.63;4938076;29;20052;-85
2023/03/07 00:11:11;;;;;;;6.93;1.60;;;;;;;0.72;100.00;99420.13;4936153;29;20401;-86
2023/03/07 00:13:38;;;;;;;5.50;1.40;;;;;;;0.41;100.00;99379.50;4943448;29;20782;-85
2023/03/07 00:16:15;;;;;;;4.18;1.33;;;;;;;0.39;100.00;99391.56;4939677;29;20052;-85
2023/03/07 00:18:42;;;;;;;3.47;1.40;;;;;;;0.42;100.00;99359.72;4944425;28;20129;-85
2023/03/07 00:21:12;;;;;;;2.15;1.20;;;;;;;0.60;100.00;99377.41;4933694;29;20048;-85
2023/03/07 00:23:41;;;;;;;2.30;1.40;;;;;;;0.44;100.00;99350.25;4936207;28;20485;-85
2023/03/07 00:26:16;;;;;;;2.53;1.13;;;;;;;0.40;100.00;99359.75;4930046;29;20063;-86
2023/03/07 00:28:46;;;;;;;2.70;1.20;;;;;;;0.59;100.00;99367.16;4943009;28;20134;-83
2023/03/07 00:31:13;;;;;;;4.43;1.20;;;;;;;0.51;100.00;99372.44;4930548;28;20099;-84
2023/03/07 00:33:40;;;;;;;1.40;1.20;;;;;;;0.12;100.00;99323.34;4944066;28;20043;-84
2023/03/07 00:36:11;;;;;;;3.92;1.55;;;;;;;0.45;100.00;99378.56;4938088;28;20489;-84
2023/03/07 00:38:38;;;;;;;3.05;1.30;;;;;;;0.14;100.00;99342.19;4937337;28;20052;-84
2023/03/07 00:41:07;;;;;;;2.10;1.20;;;;;;;0.37;100.00;99375.25;4939216;28;20705;-84
2023/03/07 00:43:35;;;;;;;1.40;1.00;;;;;;;0.33;100.00;99383.91;4930542;29;20058;-84
2023/03/07 00:46:03;;;;;;;2.22;1.20;;;;;;;0.08;100.00;99347.47;4944579;28;20043;-85
2023/03/07 00:48:33;;;;;;;1.77;1.13;;;;;;;0.13;100.00;99359.38;4926706;29;20056;-85
2023/03/07 00:51:01;;;;;;;1.35;1.10;;;;;;;0.03;100.00;99356.97;4941782;29;20052;-85
2023/03/07 00:53:27;;;;;;;2.92;1.30;;;;;;;-0.19;100.00;99323.88;4943878;28;20051;-86
2023/03/07 00:56:05;;;;;;;3.63;1.00;;;;;;;-0.10;100.00;99333.19;4938072;29;20051;-84
2023/03/07 00:58:34;;;;;;;3.75;1.35;;;;;;;-0.17;100.00;99332.44;4940476;29;20393;-86
2023/03/07 01:01:04;;;;;;;3.20;1.40;;;;;;;-0.28;100.00;99324.03;4939427;28;20067;-87
2023/03/07 01:03:31;;;;;;;3.55;1.45;;;;;;;-0.01;100.00;99377.59;4936885;29;20052;-85
2023/03/07 01:06:05;;;;;;;2.08;1.20;;;;;;;-0.51;100.00;99308.94;4935586;28;20047;-86
2023/03/07 01:08:32;;;;;;;2.58;1.27;;;;;;;-0.42;100.00;99316.53;4932986;29;20051;-86
2023/03/07 01:11:02;;;;;;;3.95;1.60;;;;;;;0.02;100.00;99389.59;4945155;28;20378;-85
2023/03/07 01:13:30;;;;;;;3.53;1.38;;;;;;;-0.28;100.00;99330.03;4923941;29;20063;-86
2023/03/07 01:16:08;;;;;;;5.32;1.60;;;;;;;-0.26;100.00;99332.59;4945839;29;20202;-85
2023/03/07 01:18:35;;;;;;;5.82;1.40;;;;;;;0.01;100.00;99344.13;4944649;28;20051;-85
2023/03/07 01:21:10;;;;;;;7.25;2.53;;;;;;;0.16;100.00;99377.34;4935454;28;20196;-86
2023/03/07 01:23:37;;;;;;;3.72;1.48;;;;;;;-0.15;100.00;99328.09;4935012;28;20051;-85
2023/03/07 01:26:04;;;;;;;3.58;1.60;;;;;;;-0.10;100.00;99330.59;4935830;29;20058;-83
2023/03/07 01:28:31;;;;;;;7.93;1.67;;;;;;;0.09;100.00;99344.88;4943610;28;20059;-84
2023/03/07 01:30:58;;;;;;;6.72;1.70;;;;;;;0.37;100.00;99398.44;4934615;28;20056;-86
2023/03/07 01:33:25;;;;;;;4.78;1.60;;;;;;;0.25;100.00;99350.59;4936807;28;20052;-85
2023/03/07 01:35:52;;;;;;;7.97;1.80;;;;;;;0.37;100.00;99403.56;4938476;29;20089;-86
2023/03/07 01:38:19;;;;;;;7.03;1.65;;;;;;;-0.17;100.00;99370.19;4945246;28;20075;-86
2023/03/07 01:40:46;;;;;;;10.43;2.30;;;;;;;0.12;100.00;99388.53;4936130;29;20409;-86
2023/03/07 01:43:24;;;;;;;3.63;1.58;;;;;;;0.38;100.00;99425.91;4946718;28;20055;-85
2023/03/07 01:45:50;;;;;;;5.18;1.58;;;;;;;0.28;100.00;99421.75;4946873;28;20054;-85
2023/03/07 01:48:17;;;;;;;5.38;1.58;;;;;;;-0.08;100.00;99370.88;4934698;29;20080;-85
2023/03/07 01:50:44;;;;;;;4.80;1.60;;;;;;;0.12;100.00;99367.13;4925085;28;20052;-85
2023/03/07 01:53:11;;;;;;;3.17;1.15;;;;;;;0.01;100.00;99349.28;4936508;28;20063;-85
2023/03/07 01:55:38;;;;;;;5.25;1.27;;;;;;;0.24;100.00;99378.94;4927829;28;20063;-85
2023/03/07 01:58:11;;;;;;;2.40;1.35;;;;;;;0.34;100.00;99360.72;4944154;29;20500;-85
2023/03/07 02:00:40;;;;;;;2.58;1.30;;;;;;;0.64;100.00;99394.53;4938368;29;20054;-85
2023/03/07 02:03:11;;;;;;;2.42;1.20;;;;;;;0.22;100.00;99335.19;4942011;28;20062;-85
2023/03/07 02:06:00;;;;;;;4.30;1.55;;;;;;;0.01;100.00;99333.84;4937373;28;20055;-85
2023/03/07 02:08:29;;;;;;;6.03;1.40;;;;;;;0.13;100.00;99338.78;4952207;28;20062;-84
2023/03/07 02:10:56;;;;;;;2.45;1.10;;;;;;;0.35;100.00;99393.34;4937938;28;20106;-86
2023/03/07 02:13:23;;;;;;;2.85;1.30;;;;;;;0.31;100.00;99377.94;4926871;29;20052;-85
2023/03/07 02:15:50;;;;;;;4.05;1.48;;;;;;;-0.24;100.00;99303.38;4942700;28;20051;-84
2023/03/07 02:18:23;;;;;;;4.43;1.35;;;;;;;-0.03;100.00;99334.78;4940289;29;20462;-85
2023/03/07 02:20:59;;;;;;;3.17;1.35;;;;;;;0.03;100.00;99356.97;4945937;28;20044;-85
2023/03/07 02:23:57;;;;;;;1.60;1.10;;;;;;;-0.35;100.00;99287.28;4936896;29;20413;-84
2023/03/07 02:26:29;;;;;;;2.75;1.08;;;;;;;0.05;100.00;99340.63;4935410;29;20055;-83
2023/03/07 02:28:57;;;;;;;3.78;1.30;;;;;;;0.14;100.00;99337.91;4941424;28;20062;-84
2023/03/07 02:31:25;;;;;;;3.03;1.27;;;;;;;-0.08;100.00;99300.56;4929051;29;20078;-84
2023/03/07 02:33:51;;;;;;;3.90;1.60;;;;;;;0.05;100.00;99327.75;4932005;29;20409;-84
2023/03/07 02:36:23;;;;;;;2.35;1.20;;;;;;;0.02;100.00;99326.97;4936579;28;20051;-84
2023/03/07 02:38:53;;;;;;;1.85;1.27;;;;;;;-0.56;100.00;99247.34;4923519;29;20125;-84
2023/03/07 02:41:24;;;;;;;3.95;1.30;;;;;;;-0.18;100.00;99299.84;4920852;29;20051;-84
2023/03/07 02:43:51;;;;;;;2.10;1.17;;;;;;;-0.61;100.00;99251.69;4930159;28;20055;-85
2023/03/07 02:46:19;;;;;;;3.15;1.33;;;;;;;-0.63;100.00;99258.59;4941000;28;20089;-85
2023/03/07 02:48:46;;;;;;;5.57;1.30;;;;;;;-0.48;100.00;99286.63;4943257;28;20412;-84
2023/03/07 02:51:13;;;;;;;4.43;1.42;;;;;;;-0.56;100.00;99280.75;4941193;28;20075;-85
2023/03/07 02:53:40;;;;;;;2.45;1.17;;;;;;;-0.82;100.00;99250.28;4934590;29;20515;-84
2023/03/07 02:56:07;;;;;;;2.33;1.20;;;;;;;-0.52;100.00;99317.53;4939860;28;20154;-84
2023/03/07 02:58:33;;;;;;;2.03;1.20;;;;;;;-0.92;100.00;99261.56;4945449;28;20051;-85
2023/03/07 03:01:00;;;;;;;2.55;1.60;;;;;;;-1.17;100.00;99220.81;4945971;29;20435;-83
2023/03/07 03:03:27;;;;;;;2.97;1.20;;;;;;;-1.14;100.00;99241.34;4947847;29;20405;-85
2023/03/07 03:05:54;;;;;;;3.65;1.27;;;;;;;-1.26;100.00;99241.50;4942420;29;20052;-85
2023/03/07 03:08:20;;;;;;;2.03;1.35;;;;;;;-1.24;100.00;99244.88;4939711;29;20447;-85
2023/03/07 03:10:54;;;;;;;1.92;1.20;;;;;;;-1.19;100.00;99251.69;4940713;28;20047;-85
2023/03/07 03:13:21;;;;;;;2.00;1.20;;;;;;;-1.19;100.00;99259.41;4940164;28;20067;-84
2023/03/07 03:15:48;;;;;;;3.78;1.55;;;;;;;-1.26;100.00;99259.47;4947386;29;20055;-85
2023/03/07 03:18:14;;;;;;;5.47;1.30;;;;;;;-1.00;100.00;99293.38;4940211;29;20102;-84
2023/03/07 03:20:41;;;;;;;3.55;1.20;;;;;;;-0.78;100.00;99344.47;4943866;28;20058;-85
2023/03/07 03:23:08;;;;;;;2.70;1.30;;;;;;;-1.15;100.00;99275.63;4940732;28;20513;-84
2023/03/07 03:25:35;;;;;;;2.30;1.23;;;;;;;-1.13;100.00;99276.44;4945878;29;20070;-85
2023/03/07 03:28:03;;;;;;;4.03;1.33;;;;;;;-1.12;100.00;99278.13;4941893;29;20047;-86
2023/03/07 03:30:34;;;;;;;1.98;1.23;;;;;;;-0.52;100.00;99336.38;4935990;29;20050;-85
2023/03/07 03:33:02;;;;;;;4.88;1.50;;;;;;;-0.61;100.00;99341.66;4932563;28;20055;-84
2023/03/07 03:35:29;;;;;;;4.30;1.50;;;;;;;-0.60;100.00;99304.81;4935393;29;20047;-84
2023/03/07 03:37:56;;;;;;;8.38;1.58;;;;;;;-0.41;100.00;99310.50;4933639;29;20139;-84
2023/03/07 03:40:23;;;;;;;2.33;1.23;;;;;;;-0.47;100.00;99279.75;4935423;29;20063;-86
2023/03/07 03:42:50;;;;;;;3.03;1.27;;;;;;;-0.45;100.00;99289.13;4935003;28;20055;-84
2023/03/07 03:45:18;;;;;;;9.35;1.58;;;;;;;-0.73;100.00;99239.03;4934572;29;20066;-85
2023/03/07 03:47:47;;;;;;;3.35;1.42;;;;;;;-0.70;100.00;99246.69;4933553;28;20048;-85
2023/03/07 03:50:14;;;;;;;4.03;1.45;;;;;;;-0.46;100.00;99300.31;4930719;29;20048;-85
2023/03/07 03:52:43;;;;;;;5.47;1.88;;;;;;;-0.13;100.00;99335.81;4924955;29;20455;-84
2023/03/07 03:55:11;;;;;;;5.88;1.40;;;;;;;-0.25;100.00;99304.28;4933371;29;20061;-84
2023/03/07 03:57:37;;;;;;;3.65;1.23;;;;;;;-0.27;100.00;99294.84;4933560;29;20101;-84
2023/03/07 04:00:07;;;;;;;4.25;2.35;;;;;;;-0.02;100.00;99315.88;4933445;29;20058;-84
2023/03/07 04:02:34;;;;;;;4.97;1.63;;;;;;;-0.34;100.00;99272.69;4933833;28;20048;-84
2023/03/07 04:05:01;;;;;;;2.65;1.40;;;;;;;-0.29;100.00;99279.44;4937278;29;20135;-85
2023/03/07 04:07:28;;;;;;;5.47;1.80;;;;;;;-0.40;100.00;99256.47;4933679;28;20083;-85
2023/03/07 04:09:54;;;;;;;3.33;1.40;;;;;;;-0.60;100.00;99254.25;4933247;29;20432;-85
2023/03/07 04:12:21;;;;;;;2.78;1.30;;;;;;;-0.29;100.00;99283.75;4931545;29;20109;-85
2023/03/07 04:14:48;;;;;;;3.67;1.33;;;;;;;-0.28;100.00;99309.44;4933487;29;20134;-84
2023/03/07 04:17:14;;;;;;;7.45;1.70;;;;;;;-0.41;100.00;99261.66;4934312;29;20551;-84
2023/03/07 04:19:41;;;;;;;5.10;1.52;;;;;;;-0.36;100.00;99259.00;4933314;29;20064;-85
2023/03/07 04:22:08;;;;;;;3.22;1.40;;;;;;;-0.44;100.00;99264.28;4988750;28;20060;-84
2023/03/07 04:24:36;;;;;;;5.57;1.83;;;;;;;-0.22;100.00;99287.91;4920262;29;20470;-84
2023/03/07 04:27:04;;;;;;;5.95;1.90;;;;;;;-0.54;100.00;99267.88;4934267;29;20059;-84
2023/03/07 04:29:30;;;;;;;4.15;1.50;;;;;;;-0.47;100.00;99254.03;4934485;29;20055;-83
2023/03/07 04:31:57;;;;;;;6.05;1.60;;;;;;;-0.40;100.00;99263.34;4931882;28;20056;-84
2023/03/07 04:34:24;;;;;;;6.65;1.70;;;;;;;-0.52;100.00;99255.84;4933765;29;20139;-84
2023/03/07 04:36:50;;;;;;;4.35;1.40;;;;;;;-0.49;100.00;99259.22;4947515;29;20469;-84
2023/03/07 04:39:17;;;;;;;9.52;2.05;;;;;;;-0.27;100.00;99287.13;4940756;29;20071;-85
2023/03/07 04:41:44;;;;;;;6.22;1.63;;;;;;;-0.61;100.00;99237.09;4923257;29;20048;-85
2023/03/07 04:44:11;;;;;;;4.82;1.92;;;;;;;-0.31;100.00;99283.78;4937309;28;20054;-85
2023/03/07 04:46:38;;;;;;;6.18;2.22;;;;;;;-0.59;100.00;99247.38;4932856;29;20135;-85
2023/03/07 04:49:04;;;;;;;3.85;1.40;;;;;;;-0.80;100.00;99222.84;4932631;28;20074;-84
2023/03/07 04:51:31;;;;;;;9.45;2.03;;;;;;;-0.50;100.00;99269.50;4928492;29;20055;-85
2023/03/07 04:53:58;;;;;;;10.10;1.80;;;;;;;-0.35;100.00;99297.56;4933637;29;20058;-85
2023/03/07 04:56:25;;;;;;;4.57;1.95;;;;;;;-0.26;100.00;99306.84;4935644;29;20073;-84
2023/03/07 04:58:52;;;;;;;9.95;2.20;;;;;;;-0.38;100.00;99282.19;4946708;28;20055;-84
2023/03/07 05:01:18;;;;;;;7.70;2.22;;;;;;;-0.35;100.00;99266.72;4932620;28;20048;-83
2023/03/07 05:03:45;;;;;;;6.38;1.40;;;;;;;-0.34;100.00;99283.81;4933555;29;20059;-84
2023/03/07 05:06:14;;;;;;;6.10;1.63;;;;;;;-0.42;100.00;99281.38;4933608;28;20054;-84
2023/03/07 05:08:40;;;;;;;5.50;1.80;;;;;;;-0.44;100.00;99285.69;4933912;29;20452;-84
2023/03/07 05:11:08;;;;;;;4.50;1.58;;;;;;;-0.14;100.00;99322.09;4931743;29;20055;-82
2023/03/07 05:13:35;;;;;;;4.47;1.50;;;;;;;-0.69;100.00;99256.09;4931952;28;20051;-84
2023/03/07 05:16:02;;;;;;;6.85;1.30;;;;;;;-0.34;100.00;99281.25;4932626;29;20055;-85
2023/03/07 05:18:28;;;;;;;5.40;1.50;;;;;;;-0.52;100.00;99251.53;4933267;29;20544;-84
2023/03/07 05:20:55;;;;;;;6.65;1.60;;;;;;;-0.59;100.00;99229.38;4931654;29;20052;-83
2023/03/07 05:23:22;;;;;;;2.33;1.45;;;;;;;-0.36;100.00;99257.28;4939103;28;20059;-84
2023/03/07 05:25:50;;;;;;;2.85;1.38;;;;;;;-0.38;100.00;99241.03;4952307;28;20062;-84
2023/03/07 05:28:16;;;;;;;4.35;1.48;;;;;;;-0.47;100.00;99256.63;4942877;28;20063;-85
2023/03/07 05:30:44;;;;;;;4.40;1.60;;;;;;;-0.07;100.00;99292.81;4931372;28;20392;-86
2023/03/07 05:33:11;;;;;;;3.88;1.60;;;;;;;-0.45;100.00;99248.00;4932369;28;20059;-85
2023/03/07 05:35:38;;;;;;;5.70;1.45;;;;;;;-0.66;100.00;99253.47;4931958;29;20056;-84
2023/03/07 05:38:05;;;;;;;4.60;1.40;;;;;;;-0.26;100.00;99305.13;4933175;29;20056;-86
2023/03/07 05:40:32;;;;;;;5.00;1.60;;;;;;;-0.61;100.00;99237.09;4931080;29;20043;-86
2023/03/07 05:42:59;;;;;;;1.63;1.20;;;;;;;-0.89;100.00;99195.56;4933238;29;20063;-85
2023/03/07 05:45:26;;;;;;;3.92;1.20;;;;;;;-0.51;100.00;99249.81;4924633;29;20482;-85
2023/03/07 05:47:53;;;;;;;2.13;1.20;;;;;;;-0.54;100.00;99237.03;4919625;29;20052;-86
2023/03/07 05:50:19;;;;;;;4.28;1.67;;;;;;;-0.90;100.00;99218.72;4917276;29;20040;-87
2023/03/07 05:52:46;;;;;;;2.25;1.27;;;;;;;-0.97;100.00;99205.97;4928000;29;20055;-86
2023/03/07 05:55:13;;;;;;;2.90;1.25;;;;;;;-0.90;100.00;99244.41;4932352;29;20109;-86
2023/03/07 05:57:40;;;;;;;2.78;1.30;;;;;;;-0.82;100.00;99247.72;4932082;29;20054;-85
2023/03/07 06:00:10;;;;;;;2.38;1.17;;;;;;;-0.79;100.00;99245.97;5002800;28;20084;-85
2023/03/07 06:02:36;;;;;;;2.45;1.23;;;;;;;-0.82;100.00;99238.28;4913828;29;20510;-85
2023/03/07 06:05:04;;;;;;;2.15;1.15;;;;;;;-0.84;100.00;99219.47;4935633;29;20134;-86
2023/03/07 06:07:30;;;;;;;1.67;1.20;;;;;;;-0.53;100.00;99266.97;4932144;29;20048;-86
2023/03/07 06:09:57;;;;;;;1.85;1.13;;;;;;;-0.55;100.00;99271.31;4933138;29;20501;-87
2023/03/07 06:12:24;;;;;;;3.13;1.40;;;;;;;-0.74;100.00;99260.44;4913013;29;20052;-86
2023/03/07 06:14:50;;;;;;;3.35;1.30;;;;;;;-0.57;100.00;99261.03;4918093;29;20052;-87
2023/03/07 06:17:17;;;;;;;3.30;1.30;;;;;;;-0.97;100.00;99198.28;4935045;29;20059;-86
2023/03/07 06:19:44;;;;;;;5.78;1.20;;;;;;;-0.67;100.00;99226.94;4931784;29;20109;-85
2023/03/07 06:22:11;;;;;;;1.80;1.25;;;;;;;-0.71;100.00;99237.28;4931441;29;20044;-86
2023/03/07 06:24:37;;;;;;;2.17;1.30;;;;;;;-0.96;100.00;99230.81;4945044;29;20066;-86
2023/03/07 06:27:04;;;;;;;1.73;1.20;;;;;;;-0.93;100.00;99224.75;4933275;29;20051;-89
2023/03/07 06:29:31;;;;;;;1.88;1.20;;;;;;;-0.96;100.00;99253.06;4933020;28;20233;-87
2023/03/07 06:31:58;;;;;;;2.65;1.23;;;;;;;-1.04;100.00;99230.06;4936886;28;20516;-89
2023/03/07 06:34:25;;;;;;;2.50;1.30;;;;;;;-1.31;100.00;99241.59;4935775;29;20619;-90
2023/03/07 06:36:52;;;;;;;2.25;1.20;;;;;;;-0.73;100.00;99311.00;4934854;29;20051;-90
2023/03/07 06:39:22;;;;;;;3.45;1.50;;;;;;;-0.64;100.00;99300.56;4934301;28;20064;-88
2023/03/07 06:41:49;;;;;;;3.08;1.23;;;;;;;-1.09;100.00;99244.69;4944027;29;20047;-89
2023/03/07 06:44:17;;;;;;;2.38;1.27;;;;;;;-0.87;100.00;99260.63;4933600;28;20058;-89
2023/03/07 06:46:44;;;;;;;2.88;1.40;;;;;;;-0.67;100.00;99280.91;4947218;28;20481;-88
2023/03/07 06:49:11;;;;;;;4.10;1.33;;;;;;;-1.02;100.00;99263.44;4944531;28;20051;-88
2023/03/07 06:51:38;;;;;;;3.83;1.20;;;;;;;-0.81;100.00;99263.13;4944648;28;20040;-89
2023/03/07 06:54:05;;;;;;;3.08;1.30;;;;;;;-1.03;100.00;99246.31;4938230;28;20106;-89
2023/03/07 06:56:33;;;;;;;4.35;1.38;;;;;;;-1.11;100.00;99245.59;4945866;28;20078;-88
2023/03/07 06:59:00;;;;;;;3.03;1.30;;;;;;;-1.24;100.00;99243.19;4941819;29;20047;-90
2023/03/07 07:01:27;;;;;;;3.47;1.40;;;;;;;-1.21;100.00;99248.25;4941395;28;20044;-89
2023/03/07 07:03:55;;;;;;;2.25;1.30;;;;;;;-1.24;100.00;99244.88;4937316;28;20106;-89
2023/03/07 07:06:22;;;;;;;2.45;1.23;;;;;;;-0.89;100.00;99293.22;4941642;28;20051;-89
2023/03/07 07:08:48;;;;;;;3.15;1.40;;;;;;;-1.14;100.00;99267.03;4950066;29;20056;-90
2023/03/07 07:11:15;;;;;;;3.55;1.40;;;;;;;-0.83;100.00;99285.44;4936490;28;20047;-91
2023/03/07 07:13:42;;;;;;;3.60;1.52;;;;;;;-1.17;100.00;99236.22;4950477;28;20052;-91
2023/03/07 07:16:09;;;;;;;1.70;1.10;;;;;;;-0.50;100.00;99321.78;4935880;29;20062;-91
2023/03/07 07:18:36;;;;;;;2.88;1.20;;;;;;;-0.83;100.00;99230.63;4945414;28;20047;-92
2023/03/07 07:21:04;;;;;;;3.40;1.45;;;;;;;-0.48;100.00;99267.75;4928168;29;20398;-91
2023/03/07 07:23:31;;;;;;;3.60;1.60;;;;;;;-0.17;100.00;99270.69;4933750;29;20062;-92
2023/03/07 07:25:57;;;;;;;1.73;1.08;;;;;;;-0.46;100.00;99218.03;4938173;28;20058;-93
2023/03/07 07:28:24;;;;;;;1.67;1.20;;;;;;;-0.03;100.00;99232.69;4941073;28;20048;-90
2023/03/07 07:30:51;;;;;;;3.75;1.33;;;;;;;-0.01;100.00;99243.78;4941541;28;20142;-93
2023/03/07 07:33:19;;;;;;;3.17;1.20;;;;;;;0.03;100.00;99218.84;4938004;28;20055;-91
2023/03/07 07:35:46;;;;;;;3.25;1.30;;;;;;;0.25;100.00;99241.59;4936882;28;20056;-93
2023/03/07 07:38:13;;;;;;;2.50;1.30;;;;;;;0.31;100.00;99255.22;4937089;28;20138;-91
2023/03/07 07:40:40;;;;;;;2.03;1.15;;;;;;;-0.41;100.00;99199.94;4930720;29;20055;-93
2023/03/07 07:43:06;;;;;;;2.33;1.20;;;;;;;-0.12;100.00;99224.31;4922504;28;20483;-93
2023/03/07 07:45:33;;;;;;;1.73;1.20;;;;;;;-0.07;100.00;99225.03;4927881;29;20489;-87
2023/03/07 07:48:00;;;;;;;2.35;1.20;;;;;;;0.02;100.00;99208.59;4920359;29;20058;-88
2023/03/07 07:50:27;;;;;;;4.75;1.27;;;;;;;0.21;100.00;99240.81;4935151;28;20063;-89
2023/03/07 07:52:54;;;;;;;2.22;1.30;;;;;;;0.25;100.00;99272.50;4935242;28;20469;-89
2023/03/07 07:55:20;;;;;;;2.53;1.30;;;;;;;0.57;100.00;99262.41;4934924;28;20154;-89
2023/03/07 07:57:47;;;;;;;3.17;1.17;;;;;;;0.53;100.00;99273.69;4936004;29;20464;-88
2023/03/07 08:00:19;;;;;;;6.35;2.10;;;;;;;0.40;100.00;99259.34;4937194;28;20425;-86
2023/03/07 08:02:50;;;;;;;3.70;1.92;;;;;;;0.65;100.00;99243.38;4949537;29;20053;-89
2023/03/07 08:05:19;;;;;;;2.38;1.33;;;;;;;0.52;100.00;99227.34;4943397;28;20482;-86
2023/03/07 08:07:46;;;;;;;4.47;1.30;;;;;;;0.26;100.00;99184.94;4933808;28;20075;-87
2023/03/07 08:10:14;;;;;;;2.53;1.30;;;;;;;0.85;100.00;99271.28;4930498;28;20055;-86
2023/03/07 08:12:42;;;;;;;2.72;1.30;;;;;;;0.61;100.00;99280.41;4926453;29;20055;-86
2023/03/07 08:15:10;;;;;;;2.58;1.48;;;;;;;0.57;100.00;99275.31;4932652;28;20486;-86
2023/03/07 08:17:37;;;;;;;4.53;1.83;;;;;;;0.93;100.00;99218.72;4933705;29;20473;-86
2023/03/07 08:20:07;;;;;;;2.10;1.23;;;;;;;1.98;100.00;99272.09;4931557;29;20052;-86
2023/03/07 08:22:35;;;;;;;3.65;1.40;;;;;;;1.87;100.00;99257.72;4922062;29;20075;-86
2023/03/07 08:25:03;;;;;;;3.22;1.30;;;;;;;1.86;100.00;99199.25;4932724;29;20087;-86
2023/03/07 08:27:30;;;;;;;4.30;1.30;;;;;;;2.25;100.00;99244.69;4933212;28;20052;-86
2023/03/07 08:29:58;;;;;;;3.90;1.30;;;;;;;1.97;100.00;99196.38;4932427;29;20051;-84
2023/03/07 08:32:26;;;;;;;4.97;1.23;;;;;;;2.56;100.00;99236.91;4931870;29;20594;-86
2023/03/07 08:34:53;;;;;;;4.97;1.38;;;;;;;2.63;100.00;99276.34;4933686;28;20054;-86
2023/03/07 08:37:19;;;;;;;4.65;1.60;;;;;;;2.26;100.00;99231.72;4932207;28;20135;-85
2023/03/07 08:39:46;;;;;;;6.55;2.22;;;;;;;2.79;100.00;99225.06;4932765;28;20056;-86
2023/03/07 08:42:13;;;;;;;3.40;1.60;;;;;;;2.76;100.00;99272.53;4932370;28;20051;-85
2023/03/07 08:44:40;;;;;;;5.15;1.55;;;;;;;2.23;100.00;99212.88;4942519;28;20051;-86
2023/03/07 08:47:07;;;;;;;5.43;1.65;;;;;;;2.90;100.00;99212.66;4935494;28;20413;-85
2023/03/07 08:49:34;;;;;;;3.47;1.70;;;;;;;2.69;100.00;99228.81;4934443;28;20047;-86
2023/03/07 08:52:00;;;;;;;4.30;1.60;;;;;;;2.55;100.00;99224.91;4934370;28;20406;-86
2023/03/07 08:54:28;;;;;;;5.97;1.70;;;;;;;2.75;100.00;99231.22;4938767;28;20059;-86
2023/03/07 08:56:54;;;;;;;8.43;1.98;;;;;;;2.36;100.00;99219.41;4934091;28;20068;-87
2023/03/07 08:59:21;;;;;;;7.38;2.00;;;;;;;2.42;100.00;99208.88;4932521;29;20059;-86
2023/03/07 09:01:48;;;;;;;9.32;1.73;;;;;;;2.89;100.00;99223.06;4922196;29;20428;-87
2023/03/07 09:04:14;;;;;;;7.50;2.00;;;;;;;2.55;100.00;99230.06;4933255;29;20059;-86
2023/03/07 09:06:41;;;;;;;5.50;2.17;;;;;;;2.71;100.00;99222.72;4931842;29;20170;-87
2023/03/07 09:09:08;;;;;;;5.82;2.08;;;;;;;2.88;100.00;99249.78;4964415;28;20445;-86
2023/03/07 09:11:35;;;;;;;5.35;1.80;;;;;;;2.68;100.00;99227.97;4941575;28;20094;-86
2023/03/07 09:14:02;;;;;;;7.65;1.60;;;;;;;2.31;100.00;99205.78;4932417;29;20723;-86
2023/03/07 09:16:28;;;;;;;6.95;1.58;;;;;;;2.89;100.00;99230.81;4932372;29;20052;-87
2023/03/07 09:18:55;;;;;;;5.25;1.60;;;;;;;2.66;100.00;99220.25;4931424;28;20055;-87
2023/03/07 09:21:22;;;;;;;6.28;1.67;;;;;;;2.82;100.00;99228.41;4930758;29;20043;-84
2023/03/07 09:23:49;;;;;;;7.03;2.28;;;;;;;2.41;100.00;99217.53;4933462;29;20052;-87
2023/03/07 09:26:16;;;;;;;7.30;1.92;;;;;;;3.18;100.00;99273.88;4933122;28;20055;-87
2023/03/07 09:28:43;;;;;;;8.85;2.00;;;;;;;2.51;100.00;99256.88;4932155;28;20066;-87
2023/03/07 09:31:11;;;;;;;7.03;1.63;;;;;;;2.31;100.00;99277.25;4929874;29;20055;-84
2023/03/07 09:33:39;;;;;;;6.18;2.03;;;;;;;2.27;100.00;99269.59;4933220;29;20062;-85
2023/03/07 09:36:10;;;;;;;10.82;1.90;;;;;;;2.06;100.00;99215.94;4920106;29;20063;-85
2023/03/07 09:38:38;;;;;;;8.52;1.90;;;;;;;1.98;100.00;99246.28;4944785;29;20477;-86
2023/03/07 09:41:23;;;;;;;8.30;2.10;;;;;;;2.32;100.00;99246.22;4927607;29;20052;-86
2023/03/07 09:44:02;;;;;;;4.35;1.58;;;;;;;2.26;100.00;99223.97;4941930;29;20047;-86
2023/03/07 09:46:53;;;;;;;4.95;1.60;;;;;;;2.29;100.00;99235.97;4969589;28;20050;-86
2023/03/07 09:49:24;;;;;;;7.07;1.80;;;;;;;2.22;100.00;99206.88;4944980;28;20051;-86
2023/03/07 09:51:57;;;;;;;6.97;1.75;;;;;;;1.79;100.00;99158.16;4931186;28;20387;-86
2023/03/07 09:54:44;;;;;;;6.68;1.70;;;;;;;2.30;100.00;99178.25;4931579;29;20113;-86
2023/03/07 09:57:25;;;;;;;7.93;1.70;;;;;;;2.38;100.00;99162.53;4920674;29;20051;-87
2023/03/07 09:59:59;;;;;;;7.82;4.05;;;;;;;2.47;100.00;99206.19;4933037;29;20062;-87
2023/03/07 10:02:54;;;;;;;4.75;1.55;;;;;;;2.24;100.00;99241.25;4967211;28;20050;-88
2023/03/07 10:05:37;;;;;;;7.25;1.83;;;;;;;1.95;100.00;99221.41;4934600;28;20052;-87
2023/03/07 10:08:05;;;;;;;4.82;1.73;;;;;;;2.26;100.00;99223.97;4933257;29;20055;-89
2023/03/07 10:10:38;;;;;;;8.75;2.00;;;;;;;2.17;100.00;99234.56;4930586;29;20059;-88
2023/03/07 10:13:17;;;;;;;;;;;;;;;2.26;100.00;99225.72;4932263;29;20075;-89
2023/03/07 10:15:47;;;;;;;6.00;1.85;;;;;;;2.25;100.00;99231.78;4913229;29;19922;-90
2023/03/07 10:18:20;;;;;;;6.93;1.73;;;;;;;2.65;100.00;99228.06;4934137;29;20060;-89
2023/03/07 10:20:50;;;;;;;;;;;;;;;2.46;100.00;99220.84;4933576;28;20552;-89
2023/03/07 10:23:23;;;;;;;7.53;2.95;;;;;;;2.44;100.00;99219.19;4932929;28;19929;-89
2023/03/07 10:26:01;;;;;;;8.68;1.90;;;;;;;1.98;100.00;99192.06;4932008;28;20052;-90
2023/03/07 10:28:31;;;;;;;6.82;1.50;;;;;;;1.88;100.00;99215.53;4932158;29;20059;-91
2023/03/07 10:31:10;;;;;;;6.43;1.75;;;;;;;1.31;100.00;99180.88;4931803;28;20058;-90
2023/03/07 10:33:39;;;;;;;5.25;1.58;;;;;;;1.56;100.00;99151.88;4947787;29;20055;-89
2023/03/07 10:36:12;;;;;;;5.55;1.70;;;;;;;1.33;100.00;99143.00;4931883;29;20063;-90
2023/03/07 10:38:48;;;;;;;4.78;1.70;;;;;;;1.45;100.00;99172.81;4931999;29;20059;-91
2023/03/07 10:41:20;;;;;;;7.10;1.77;;;;;;;1.42;100.00;99156.56;4939498;28;20055;-91
2023/03/07 10:43:48;;;;;;;5.35;1.67;;;;;;;1.23;100.00;99158.75;4932398;28;20052;-90
2023/03/07 10:46:17;;;;;;;6.10;1.55;;;;;;;1.78;100.00;99210.66;4932437;29;20052;-90
2023/03/07 10:49:19;;;;;;;4.35;1.38;;;;;;;1.60;100.00;99210.25;4931885;29;20503;-89
2023/03/07 10:51:54;;;;;;;8.10;1.75;;;;;;;1.65;100.00;99192.91;4936409;28;20416;-89
2023/03/07 10:54:28;;;;;;;7.30;1.65;;;;;;;1.61;100.00;99206.78;4932153;29;20063;-90
2023/03/07 10:57:13;;;;;;;6.72;1.55;;;;;;;1.66;100.00;99204.91;4931346;28;20052;-89
2023/03/07 10:59:46;;;;;;;5.85;1.75;;;;;;;1.88;100.00;99171.66;4930884;29;20051;-88
2023/03/07 11:02:22;;;;;;;;;;;;;;;2.16;100.00;99207.06;4931409;28;20063;-89
2023/03/07 11:04:48;;;;;;;5.40;1.60;;;;;;;1.85;100.00;99152.84;4932873;29;20281;-88
2023/03/07 11:07:35;;;;;;;3.83;1.63;;;;;;;2.42;100.00;99197.72;4930984;29;20134;-89
2023/03/07 11:10:24;;;;;;;9.18;1.70;;;;;;;2.34;100.00;99204.81;4930138;29;20058;-89
2023/03/07 11:12:51;;;;;;;4.13;1.48;;;;;;;1.67;100.00;99130.97;4930074;29;20048;-89
2023/03/07 11:15:22;;;;;;;5.68;1.50;;;;;;;1.30;100.00;99143.06;4930571;29;20062;-88
2023/03/07 11:17:51;;;;;;;4.30;1.58;;;;;;;1.29;100.00;99154.28;4935710;29;20056;-88
2023/03/07 11:20:25;;;;;;;5.63;1.75;;;;;;;1.98;100.00;99210.97;4944064;29;20052;-88
2023/03/07 11:23:30;;;;;;;4.82;1.73;;;;;;;1.93;100.00;99210.28;4934141;28;20470;-88
2023/03/07 11:26:15;;;;;;;6.45;1.70;;;;;;;1.97;100.00;99224.78;4920937;28;20101;-89
2023/03/07 11:28:42;;;;;;;5.50;1.70;;;;;;;1.76;100.00;99210.69;4934252;28;20409;-88
2023/03/07 11:31:24;;;;;;;4.47;1.67;;;;;;;1.94;100.00;99182.72;4937704;29;20142;-87
2023/03/07 11:34:00;;;;;;;9.02;1.90;;;;;;;2.38;100.00;99209.88;4939033;29;20055;-90
2023/03/07 11:36:31;;;;;;;5.30;1.60;;;;;;;2.20;100.00;99200.91;4943327;28;20051;-89
2023/03/07 11:39:19;;;;;;;4.35;1.70;;;;;;;2.49;100.00;99240.56;4939301;28;20134;-88